sensor_id;sensor_type;location;lat;lon;timestamp;temperature;humidity
13458;DHT22;6801;53.018;11.560;2023-03-23T00:01:28;11.50;75.60
13458;DHT22;6801;53.018;11.560;2023-03-23T00:03:58;11.50;75.50
13458;DHT22;6801;53.018;11.560;2023-03-23T00:06:26;11.50;75.50
13458;DHT22;6801;53.018;11.560;2023-03-23T00:08:58;11.50;75.50
13458;DHT22;6801;53.018;11.560;2023-03-23T00:11:29;11.50;75.50
13458;DHT22;6801;53.018;11.560;2023-03-23T00:13:59;11.50;75.50
13458;DHT22;6801;53.018;11.560;2023-03-23T00:16:29;11.50;75.40
13458;DHT22;6801;53.018;11.560;2023-03-23T00:18:58;11.50;75.40
13458;DHT22;6801;53.018;11.560;2023-03-23T00:21:27;11.50;75.40
13458;DHT22;6801;53.018;11.560;2023-03-23T00:24:01;11.50;75.40
13458;DHT22;6801;53.018;11.560;2023-03-23T00:26:29;11.60;75.40
13458;DHT22;6801;53.018;11.560;2023-03-23T00:29:01;11.50;75.50
13458;DHT22;6801;53.018;11.560;2023-03-23T00:31:29;11.50;75.40
13458;DHT22;6801;53.018;11.560;2023-03-23T00:33:58;11.50;75.40
13458;DHT22;6801;53.018;11.560;2023-03-23T00:36:27;11.50;75.30
13458;DHT22;6801;53.018;11.560;2023-03-23T00:38:54;11.60;75.30
13458;DHT22;6801;53.018;11.560;2023-03-23T00:41:23;11.60;75.20
13458;DHT22;6801;53.018;11.560;2023-03-23T00:43:52;11.60;75.20
13458;DHT22;6801;53.018;11.560;2023-03-23T00:46:21;11.60;75.30
13458;DHT22;6801;53.018;11.560;2023-03-23T00:48:48;11.60;75.30
13458;DHT22;6801;53.018;11.560;2023-03-23T00:51:16;11.60;75.40
13458;DHT22;6801;53.018;11.560;2023-03-23T00:53:44;11.60;75.40
13458;DHT22;6801;53.018;11.560;2023-03-23T00:56:11;11.60;75.50
13458;DHT22;6801;53.018;11.560;2023-03-23T00:58:38;11.50;75.50
13458;DHT22;6801;53.018;11.560;2023-03-23T01:01:06;11.50;75.60
13458;DHT22;6801;53.018;11.560;2023-03-23T01:03:34;11.60;75.70
13458;DHT22;6801;53.018;11.560;2023-03-23T01:06:07;11.50;75.70
13458;DHT22;6801;53.018;11.560;2023-03-23T01:08:38;11.50;75.80
13458;DHT22;6801;53.018;11.560;2023-03-23T01:11:11;11.50;75.90
13458;DHT22;6801;53.018;11.560;2023-03-23T01:13:38;11.50;76.00
13458;DHT22;6801;53.018;11.560;2023-03-23T01:16:06;11.50;76.10
13458;DHT22;6801;53.018;11.560;2023-03-23T01:18:35;11.50;76.20
13458;DHT22;6801;53.018;11.560;2023-03-23T01:21:06;11.50;76.30
13458;DHT22;6801;53.018;11.560;2023-03-23T01:23:34;11.50;76.40
13458;DHT22;6801;53.018;11.560;2023-03-23T01:26:05;11.50;76.50
13458;DHT22;6801;53.018;11.560;2023-03-23T01:28:33;11.50;76.70
13458;DHT22;6801;53.018;11.560;2023-03-23T01:31:01;11.50;76.80
13458;DHT22;6801;53.018;11.560;2023-03-23T01:33:28;11.50;76.90
13458;DHT22;6801;53.018;11.560;2023-03-23T01:35:57;11.50;77.10
13458;DHT22;6801;53.018;11.560;2023-03-23T01:38:24;11.50;77.20
13458;DHT22;6801;53.018;11.560;2023-03-23T01:40:51;11.50;77.40
13458;DHT22;6801;53.018;11.560;2023-03-23T01:43:19;11.50;77.50
13458;DHT22;6801;53.018;11.560;2023-03-23T01:45:46;11.50;77.70
13458;DHT22;6801;53.018;11.560;2023-03-23T01:48:16;11.40;77.70
13458;DHT22;6801;53.018;11.560;2023-03-23T01:50:50;11.40;77.90
13458;DHT22;6801;53.018;11.560;2023-03-23T01:53:20;11.40;77.90
13458;DHT22;6801;53.018;11.560;2023-03-23T01:55:52;11.40;78.00
13458;DHT22;6801;53.018;11.560;2023-03-23T01:58:23;11.40;78.10
13458;DHT22;6801;53.018;11.560;2023-03-23T02:00:54;11.40;78.20
13458;DHT22;6801;53.018;11.560;2023-03-23T02:03:23;11.40;78.30
13458;DHT22;6801;53.018;11.560;2023-03-23T02:05:51;11.30;78.40
13458;DHT22;6801;53.018;11.560;2023-03-23T02:08:33;11.30;78.60
13458;DHT22;6801;53.018;11.560;2023-03-23T02:11:01;11.40;78.60
13458;DHT22;6801;53.018;11.560;2023-03-23T02:13:35;11.30;78.70
13458;DHT22;6801;53.018;11.560;2023-03-23T02:16:05;11.30;79.00
13458;DHT22;6801;53.018;11.560;2023-03-23T02:18:43;11.30;79.20
13458;DHT22;6801;53.018;11.560;2023-03-23T02:21:51;11.30;79.20
13458;DHT22;6801;53.018;11.560;2023-03-23T02:24:55;11.30;79.30
13458;DHT22;6801;53.018;11.560;2023-03-23T02:30:48;11.30;79.50
13458;DHT22;6801;53.018;11.560;2023-03-23T02:33:33;11.30;79.90
13458;DHT22;6801;53.018;11.560;2023-03-23T02:36:05;11.30;79.90
13458;DHT22;6801;53.018;11.560;2023-03-23T02:38:38;11.30;80.10
13458;DHT22;6801;53.018;11.560;2023-03-23T02:41:10;11.30;80.10
13458;DHT22;6801;53.018;11.560;2023-03-23T02:43:40;11.30;80.20
13458;DHT22;6801;53.018;11.560;2023-03-23T02:46:10;11.30;80.20
13458;DHT22;6801;53.018;11.560;2023-03-23T02:48:41;11.20;80.30
13458;DHT22;6801;53.018;11.560;2023-03-23T02:51:10;11.20;80.20
13458;DHT22;6801;53.018;11.560;2023-03-23T02:53:40;11.20;80.20
13458;DHT22;6801;53.018;11.560;2023-03-23T02:56:10;11.20;80.40
13458;DHT22;6801;53.018;11.560;2023-03-23T02:58:39;11.20;80.40
13458;DHT22;6801;53.018;11.560;2023-03-23T03:04:03;11.20;80.40
13458;DHT22;6801;53.018;11.560;2023-03-23T03:06:37;11.30;80.50
13458;DHT22;6801;53.018;11.560;2023-03-23T03:09:14;11.20;80.60
13458;DHT22;6801;53.018;11.560;2023-03-23T03:11:48;11.20;80.70
13458;DHT22;6801;53.018;11.560;2023-03-23T03:14:20;11.20;80.80
13458;DHT22;6801;53.018;11.560;2023-03-23T03:16:53;11.20;80.80
13458;DHT22;6801;53.018;11.560;2023-03-23T03:19:26;11.20;80.80
13458;DHT22;6801;53.018;11.560;2023-03-23T03:21:55;11.20;80.90
13458;DHT22;6801;53.018;11.560;2023-03-23T03:24:31;11.20;81.00
13458;DHT22;6801;53.018;11.560;2023-03-23T03:27:00;11.20;81.10
13458;DHT22;6801;53.018;11.560;2023-03-23T03:29:41;11.20;81.20
13458;DHT22;6801;53.018;11.560;2023-03-23T03:32:11;11.20;81.20
13458;DHT22;6801;53.018;11.560;2023-03-23T03:34:39;11.10;81.10
13458;DHT22;6801;53.018;11.560;2023-03-23T03:37:07;11.20;81.20
13458;DHT22;6801;53.018;11.560;2023-03-23T03:39:35;11.10;81.20
13458;DHT22;6801;53.018;11.560;2023-03-23T03:42:03;11.20;81.20
13458;DHT22;6801;53.018;11.560;2023-03-23T03:44:31;11.10;81.20
13458;DHT22;6801;53.018;11.560;2023-03-23T03:46:58;11.10;81.30
13458;DHT22;6801;53.018;11.560;2023-03-23T03:49:26;11.10;81.30
13458;DHT22;6801;53.018;11.560;2023-03-23T03:51:55;11.20;81.40
13458;DHT22;6801;53.018;11.560;2023-03-23T03:54:27;11.20;81.40
13458;DHT22;6801;53.018;11.560;2023-03-23T03:56:54;11.10;81.50
13458;DHT22;6801;53.018;11.560;2023-03-23T03:59:35;11.10;81.50
13458;DHT22;6801;53.018;11.560;2023-03-23T04:02:25;11.10;81.40
13458;DHT22;6801;53.018;11.560;2023-03-23T04:04:53;11.10;81.60
13458;DHT22;6801;53.018;11.560;2023-03-23T04:07:21;11.20;81.90
13458;DHT22;6801;53.018;11.560;2023-03-23T04:09:51;11.10;81.80
13458;DHT22;6801;53.018;11.560;2023-03-23T04:12:20;11.20;81.70
13458;DHT22;6801;53.018;11.560;2023-03-23T04:14:56;11.20;82.00
13458;DHT22;6801;53.018;11.560;2023-03-23T04:17:28;11.20;82.20
13458;DHT22;6801;53.018;11.560;2023-03-23T04:19:56;11.20;82.30
13458;DHT22;6801;53.018;11.560;2023-03-23T04:22:26;11.20;82.50
13458;DHT22;6801;53.018;11.560;2023-03-23T04:25:00;11.20;82.70
13458;DHT22;6801;53.018;11.560;2023-03-23T04:27:32;11.20;82.80
13458;DHT22;6801;53.018;11.560;2023-03-23T04:30:02;11.20;82.80
13458;DHT22;6801;53.018;11.560;2023-03-23T04:32:43;11.20;82.90
13458;DHT22;6801;53.018;11.560;2023-03-23T04:35:14;11.30;82.90
13458;DHT22;6801;53.018;11.560;2023-03-23T04:37:48;11.20;83.10
13458;DHT22;6801;53.018;11.560;2023-03-23T04:40:18;11.20;83.10
13458;DHT22;6801;53.018;11.560;2023-03-23T04:42:55;11.20;83.00
13458;DHT22;6801;53.018;11.560;2023-03-23T04:45:46;11.20;83.00
13458;DHT22;6801;53.018;11.560;2023-03-23T04:48:13;11.20;83.00
13458;DHT22;6801;53.018;11.560;2023-03-23T04:50:56;11.20;83.00
13458;DHT22;6801;53.018;11.560;2023-03-23T04:53:29;11.20;83.00
13458;DHT22;6801;53.018;11.560;2023-03-23T04:55:57;11.20;83.10
13458;DHT22;6801;53.018;11.560;2023-03-23T04:58:28;11.20;83.10
13458;DHT22;6801;53.018;11.560;2023-03-23T05:01:19;11.20;83.10
13458;DHT22;6801;53.018;11.560;2023-03-23T05:04:10;11.20;83.20
13458;DHT22;6801;53.018;11.560;2023-03-23T05:06:39;11.20;83.20
13458;DHT22;6801;53.018;11.560;2023-03-23T05:09:14;11.20;83.30
13458;DHT22;6801;53.018;11.560;2023-03-23T05:11:42;11.20;83.20
13458;DHT22;6801;53.018;11.560;2023-03-23T05:14:10;11.20;83.20
13458;DHT22;6801;53.018;11.560;2023-03-23T05:16:38;11.20;83.20
13458;DHT22;6801;53.018;11.560;2023-03-23T05:19:06;11.20;83.30
13458;DHT22;6801;53.018;11.560;2023-03-23T05:21:35;11.20;83.30
13458;DHT22;6801;53.018;11.560;2023-03-23T05:24:03;11.20;83.30
13458;DHT22;6801;53.018;11.560;2023-03-23T05:26:33;11.20;83.40
13458;DHT22;6801;53.018;11.560;2023-03-23T05:29:06;11.20;83.50
13458;DHT22;6801;53.018;11.560;2023-03-23T05:31:41;11.20;83.50
13458;DHT22;6801;53.018;11.560;2023-03-23T05:34:08;11.20;83.30
13458;DHT22;6801;53.018;11.560;2023-03-23T05:36:45;11.20;83.30
13458;DHT22;6801;53.018;11.560;2023-03-23T05:39:33;11.20;83.30
13458;DHT22;6801;53.018;11.560;2023-03-23T05:42:22;11.30;83.30
13458;DHT22;6801;53.018;11.560;2023-03-23T05:45:00;11.20;83.40
13458;DHT22;6801;53.018;11.560;2023-03-23T05:47:27;11.20;83.50
13458;DHT22;6801;53.018;11.560;2023-03-23T05:50:01;11.20;83.60
13458;DHT22;6801;53.018;11.560;2023-03-23T05:52:30;11.20;83.70
13458;DHT22;6801;53.018;11.560;2023-03-23T05:54:58;11.20;83.70
13458;DHT22;6801;53.018;11.560;2023-03-23T05:57:27;11.20;83.80
13458;DHT22;6801;53.018;11.560;2023-03-23T06:00:02;11.20;83.80
13458;DHT22;6801;53.018;11.560;2023-03-23T06:02:39;11.20;83.90
13458;DHT22;6801;53.018;11.560;2023-03-23T06:05:12;11.10;83.90
13458;DHT22;6801;53.018;11.560;2023-03-23T06:07:43;11.10;83.90
13458;DHT22;6801;53.018;11.560;2023-03-23T06:10:10;11.10;84.00
13458;DHT22;6801;53.018;11.560;2023-03-23T06:12:40;11.20;83.90
13458;DHT22;6801;53.018;11.560;2023-03-23T06:15:08;11.20;83.80
13458;DHT22;6801;53.018;11.560;2023-03-23T06:17:59;11.20;84.00
13458;DHT22;6801;53.018;11.560;2023-03-23T06:20:42;11.10;83.90
13458;DHT22;6801;53.018;11.560;2023-03-23T06:23:29;11.20;84.00
13458;DHT22;6801;53.018;11.560;2023-03-23T06:25:58;11.20;84.00
13458;DHT22;6801;53.018;11.560;2023-03-23T06:28:28;11.20;84.20
13458;DHT22;6801;53.018;11.560;2023-03-23T06:30:55;11.20;84.00
13458;DHT22;6801;53.018;11.560;2023-03-23T06:33:25;11.20;84.10
13458;DHT22;6801;53.018;11.560;2023-03-23T06:36:10;11.20;84.00
13458;DHT22;6801;53.018;11.560;2023-03-23T06:38:49;11.10;84.10
13458;DHT22;6801;53.018;11.560;2023-03-23T06:41:21;11.20;84.10
13458;DHT22;6801;53.018;11.560;2023-03-23T06:43:52;11.30;84.20
13458;DHT22;6801;53.018;11.560;2023-03-23T06:46:24;11.20;84.10
13458;DHT22;6801;53.018;11.560;2023-03-23T06:48:51;11.30;84.00
13458;DHT22;6801;53.018;11.560;2023-03-23T06:51:25;11.30;84.00
13458;DHT22;6801;53.018;11.560;2023-03-23T06:53:54;11.30;83.90
13458;DHT22;6801;53.018;11.560;2023-03-23T06:56:23;11.30;83.90
13458;DHT22;6801;53.018;11.560;2023-03-23T06:58:52;11.20;84.00
13458;DHT22;6801;53.018;11.560;2023-03-23T07:01:19;11.30;84.10
13458;DHT22;6801;53.018;11.560;2023-03-23T07:03:54;11.30;83.90
13458;DHT22;6801;53.018;11.560;2023-03-23T07:06:33;11.30;84.00
13458;DHT22;6801;53.018;11.560;2023-03-23T07:09:01;11.40;83.80
13458;DHT22;6801;53.018;11.560;2023-03-23T07:11:29;11.30;83.80
13458;DHT22;6801;53.018;11.560;2023-03-23T07:14:02;11.40;83.70
13458;DHT22;6801;53.018;11.560;2023-03-23T07:16:30;11.40;83.70
13458;DHT22;6801;53.018;11.560;2023-03-23T07:18:57;11.40;83.60
13458;DHT22;6801;53.018;11.560;2023-03-23T07:21:24;11.50;83.40
13458;DHT22;6801;53.018;11.560;2023-03-23T07:23:52;11.50;83.40
13458;DHT22;6801;53.018;11.560;2023-03-23T07:26:32;11.40;83.40
13458;DHT22;6801;53.018;11.560;2023-03-23T07:28:59;11.40;83.20
13458;DHT22;6801;53.018;11.560;2023-03-23T07:31:36;11.40;83.30
13458;DHT22;6801;53.018;11.560;2023-03-23T07:34:03;11.40;83.40
13458;DHT22;6801;53.018;11.560;2023-03-23T07:36:41;11.40;83.30
13458;DHT22;6801;53.018;11.560;2023-03-23T07:39:09;11.50;83.10
13458;DHT22;6801;53.018;11.560;2023-03-23T07:41:38;11.50;82.90
13458;DHT22;6801;53.018;11.560;2023-03-23T07:44:14;11.50;82.80
13458;DHT22;6801;53.018;11.560;2023-03-23T07:46:44;11.50;82.90
13458;DHT22;6801;53.018;11.560;2023-03-23T07:49:14;11.60;82.80
13458;DHT22;6801;53.018;11.560;2023-03-23T07:51:47;11.60;82.60
13458;DHT22;6801;53.018;11.560;2023-03-23T07:54:15;11.60;82.70
13458;DHT22;6801;53.018;11.560;2023-03-23T07:57:13;11.60;82.60
13458;DHT22;6801;53.018;11.560;2023-03-23T07:59:46;11.60;82.40
13458;DHT22;6801;53.018;11.560;2023-03-23T08:02:14;11.60;82.40
13458;DHT22;6801;53.018;11.560;2023-03-23T08:04:41;11.70;82.40
13458;DHT22;6801;53.018;11.560;2023-03-23T08:07:29;11.70;82.40
13458;DHT22;6801;53.018;11.560;2023-03-23T08:10:06;11.70;82.20
13458;DHT22;6801;53.018;11.560;2023-03-23T08:12:56;11.70;82.20
13458;DHT22;6801;53.018;11.560;2023-03-23T08:15:43;11.80;82.20
13458;DHT22;6801;53.018;11.560;2023-03-23T08:18:30;11.80;82.00
13458;DHT22;6801;53.018;11.560;2023-03-23T08:21:20;11.80;82.20
13458;DHT22;6801;53.018;11.560;2023-03-23T08:24:06;11.90;82.20
13458;DHT22;6801;53.018;11.560;2023-03-23T08:26:53;11.90;82.20
13458;DHT22;6801;53.018;11.560;2023-03-23T08:29:20;11.90;82.20
13458;DHT22;6801;53.018;11.560;2023-03-23T08:32:04;12.00;82.10
13458;DHT22;6801;53.018;11.560;2023-03-23T08:34:54;12.00;81.80
13458;DHT22;6801;53.018;11.560;2023-03-23T08:37:46;12.10;81.80
13458;DHT22;6801;53.018;11.560;2023-03-23T08:40:35;12.20;81.40
13458;DHT22;6801;53.018;11.560;2023-03-23T08:43:35;12.20;81.50
13458;DHT22;6801;53.018;11.560;2023-03-23T08:46:24;12.20;81.40
13458;DHT22;6801;53.018;11.560;2023-03-23T08:49:07;12.30;81.40
13458;DHT22;6801;53.018;11.560;2023-03-23T08:51:55;12.30;81.20
13458;DHT22;6801;53.018;11.560;2023-03-23T08:54:30;12.40;81.30
13458;DHT22;6801;53.018;11.560;2023-03-23T08:56:59;12.50;81.10
13458;DHT22;6801;53.018;11.560;2023-03-23T08:59:53;12.60;81.00
13458;DHT22;6801;53.018;11.560;2023-03-23T09:03:01;12.60;81.00
13458;DHT22;6801;53.018;11.560;2023-03-23T09:05:46;12.60;81.00
13458;DHT22;6801;53.018;11.560;2023-03-23T09:08:24;12.80;80.60
13458;DHT22;6801;53.018;11.560;2023-03-23T09:10:52;12.90;80.40
13458;DHT22;6801;53.018;11.560;2023-03-23T09:13:18;12.90;80.20
13458;DHT22;6801;53.018;11.560;2023-03-23T09:15:46;12.90;80.40
13458;DHT22;6801;53.018;11.560;2023-03-23T09:18:13;12.90;80.30
13458;DHT22;6801;53.018;11.560;2023-03-23T09:20:40;13.00;79.80
13458;DHT22;6801;53.018;11.560;2023-03-23T09:23:08;13.10;79.60
13458;DHT22;6801;53.018;11.560;2023-03-23T09:25:36;13.10;79.10
13458;DHT22;6801;53.018;11.560;2023-03-23T09:28:03;13.10;79.40
13458;DHT22;6801;53.018;11.560;2023-03-23T09:30:32;13.10;79.20
13458;DHT22;6801;53.018;11.560;2023-03-23T09:33:02;13.20;79.20
13458;DHT22;6801;53.018;11.560;2023-03-23T09:35:29;13.20;79.00
13458;DHT22;6801;53.018;11.560;2023-03-23T09:37:57;13.30;79.00
13458;DHT22;6801;53.018;11.560;2023-03-23T09:40:29;13.30;78.80
13458;DHT22;6801;53.018;11.560;2023-03-23T09:43:22;13.30;78.70
13458;DHT22;6801;53.018;11.560;2023-03-23T09:45:58;13.30;78.60
13458;DHT22;6801;53.018;11.560;2023-03-23T09:48:35;13.30;78.50
13458;DHT22;6801;53.018;11.560;2023-03-23T09:51:11;13.40;78.20
13458;DHT22;6801;53.018;11.560;2023-03-23T09:53:43;13.40;78.50
13458;DHT22;6801;53.018;11.560;2023-03-23T09:56:11;13.50;78.10
13458;DHT22;6801;53.018;11.560;2023-03-23T09:58:45;13.40;78.20
13458;DHT22;6801;53.018;11.560;2023-03-23T10:01:17;13.40;78.40
13458;DHT22;6801;53.018;11.560;2023-03-23T10:03:46;13.50;77.90
13458;DHT22;6801;53.018;11.560;2023-03-23T10:06:16;13.50;77.50
13458;DHT22;6801;53.018;11.560;2023-03-23T10:08:54;13.50;77.50
13458;DHT22;6801;53.018;11.560;2023-03-23T10:11:28;13.50;77.90
13458;DHT22;6801;53.018;11.560;2023-03-23T10:14:11;13.50;78.00
13458;DHT22;6801;53.018;11.560;2023-03-23T10:16:50;13.50;77.70
13458;DHT22;6801;53.018;11.560;2023-03-23T10:19:26;13.50;77.80
13458;DHT22;6801;53.018;11.560;2023-03-23T10:21:59;13.60;77.60
13458;DHT22;6801;53.018;11.560;2023-03-23T10:24:33;13.70;77.10
13458;DHT22;6801;53.018;11.560;2023-03-23T10:27:17;13.60;77.60
13458;DHT22;6801;53.018;11.560;2023-03-23T10:29:52;13.60;77.40
13458;DHT22;6801;53.018;11.560;2023-03-23T10:32:34;13.60;77.80
13458;DHT22;6801;53.018;11.560;2023-03-23T10:35:06;13.70;77.70
13458;DHT22;6801;53.018;11.560;2023-03-23T10:37:37;13.70;77.60
13458;DHT22;6801;53.018;11.560;2023-03-23T10:40:11;13.70;77.60
13458;DHT22;6801;53.018;11.560;2023-03-23T10:42:41;13.90;76.40
13458;DHT22;6801;53.018;11.560;2023-03-23T10:45:16;14.00;75.80
13458;DHT22;6801;53.018;11.560;2023-03-23T10:47:48;14.00;76.20
13458;DHT22;6801;53.018;11.560;2023-03-23T10:50:18;14.10;75.20
13458;DHT22;6801;53.018;11.560;2023-03-23T10:52:50;14.00;76.20
13458;DHT22;6801;53.018;11.560;2023-03-23T10:55:20;14.00;76.50
13458;DHT22;6801;53.018;11.560;2023-03-23T10:57:59;14.00;76.10
13458;DHT22;6801;53.018;11.560;2023-03-23T11:00:30;14.00;76.20
13458;DHT22;6801;53.018;11.560;2023-03-23T11:02:59;14.00;76.00
13458;DHT22;6801;53.018;11.560;2023-03-23T11:05:35;14.00;75.70
13458;DHT22;6801;53.018;11.560;2023-03-23T11:08:04;13.90;73.70
13458;DHT22;6801;53.018;11.560;2023-03-23T11:10:38;13.90;74.40
13458;DHT22;6801;53.018;11.560;2023-03-23T11:13:12;13.80;73.30
13458;DHT22;6801;53.018;11.560;2023-03-23T11:15:43;13.70;74.20
13458;DHT22;6801;53.018;11.560;2023-03-23T11:18:13;13.70;75.10
13458;DHT22;6801;53.018;11.560;2023-03-23T11:20:42;13.70;74.60
13458;DHT22;6801;53.018;11.560;2023-03-23T11:23:13;13.60;74.80
13458;DHT22;6801;53.018;11.560;2023-03-23T11:25:55;13.50;75.40
13458;DHT22;6801;53.018;11.560;2023-03-23T11:28:27;13.50;75.90
13458;DHT22;6801;53.018;11.560;2023-03-23T11:30:58;13.40;76.20
13458;DHT22;6801;53.018;11.560;2023-03-23T11:33:29;13.40;76.50
13458;DHT22;6801;53.018;11.560;2023-03-23T11:35:56;13.30;76.80
13458;DHT22;6801;53.018;11.560;2023-03-23T11:38:24;13.30;77.00
13458;DHT22;6801;53.018;11.560;2023-03-23T11:40:54;13.30;77.20
13458;DHT22;6801;53.018;11.560;2023-03-23T11:43:22;13.20;77.30
13458;DHT22;6801;53.018;11.560;2023-03-23T11:45:58;13.10;77.60
13458;DHT22;6801;53.018;11.560;2023-03-23T11:48:33;13.10;77.40
13458;DHT22;6801;53.018;11.560;2023-03-23T11:51:04;13.00;77.60
13458;DHT22;6801;53.018;11.560;2023-03-23T11:53:41;13.00;77.40
13458;DHT22;6801;53.018;11.560;2023-03-23T11:56:15;12.90;77.50
13458;DHT22;6801;53.018;11.560;2023-03-23T11:58:44;12.80;78.00
13458;DHT22;6801;53.018;11.560;2023-03-23T12:01:21;12.80;78.20
13458;DHT22;6801;53.018;11.560;2023-03-23T12:06:53;12.80;78.50
13458;DHT22;6801;53.018;11.560;2023-03-23T12:09:36;12.80;78.60
13458;DHT22;6801;53.018;11.560;2023-03-23T12:12:13;12.60;79.00
13458;DHT22;6801;53.018;11.560;2023-03-23T12:14:49;12.60;79.10
13458;DHT22;6801;53.018;11.560;2023-03-23T12:17:32;12.60;79.10
13458;DHT22;6801;53.018;11.560;2023-03-23T12:20:12;12.70;79.20
13458;DHT22;6801;53.018;11.560;2023-03-23T12:22:51;12.60;79.20
13458;DHT22;6801;53.018;11.560;2023-03-23T12:28:22;12.70;79.20
13458;DHT22;6801;53.018;11.560;2023-03-23T12:30:56;12.70;79.30
13458;DHT22;6801;53.018;11.560;2023-03-23T12:33:37;12.70;79.20
13458;DHT22;6801;53.018;11.560;2023-03-23T12:36:20;12.70;79.00
13458;DHT22;6801;53.018;11.560;2023-03-23T12:38:58;12.70;78.90
13458;DHT22;6801;53.018;11.560;2023-03-23T12:41:33;12.70;78.90
13458;DHT22;6801;53.018;11.560;2023-03-23T12:44:06;12.70;79.20
13458;DHT22;6801;53.018;11.560;2023-03-23T12:47:00;12.70;79.00
13458;DHT22;6801;53.018;11.560;2023-03-23T12:49:33;12.70;79.10
13458;DHT22;6801;53.018;11.560;2023-03-23T12:52:08;12.70;79.20
13458;DHT22;6801;53.018;11.560;2023-03-23T12:54:40;12.70;79.10
13458;DHT22;6801;53.018;11.560;2023-03-23T12:57:14;12.70;79.20
13458;DHT22;6801;53.018;11.560;2023-03-23T12:59:47;12.60;79.40
13458;DHT22;6801;53.018;11.560;2023-03-23T13:02:20;12.70;79.60
13458;DHT22;6801;53.018;11.560;2023-03-23T13:04:52;12.70;79.70
13458;DHT22;6801;53.018;11.560;2023-03-23T13:07:25;12.70;79.70
13458;DHT22;6801;53.018;11.560;2023-03-23T13:09:55;12.70;79.60
13458;DHT22;6801;53.018;11.560;2023-03-23T13:12:25;12.80;79.60
13458;DHT22;6801;53.018;11.560;2023-03-23T13:15:04;12.70;79.60
13458;DHT22;6801;53.018;11.560;2023-03-23T13:17:41;12.80;79.60
13458;DHT22;6801;53.018;11.560;2023-03-23T13:20:37;12.80;79.60
13458;DHT22;6801;53.018;11.560;2023-03-23T13:23:11;12.80;79.60
13458;DHT22;6801;53.018;11.560;2023-03-23T13:25:49;12.80;79.60
13458;DHT22;6801;53.018;11.560;2023-03-23T13:28:19;12.80;79.70
13458;DHT22;6801;53.018;11.560;2023-03-23T13:31:00;12.90;79.70
13458;DHT22;6801;53.018;11.560;2023-03-23T13:33:33;12.90;79.70
13458;DHT22;6801;53.018;11.560;2023-03-23T13:36:26;13.00;79.60
13458;DHT22;6801;53.018;11.560;2023-03-23T13:38:53;13.00;79.50
13458;DHT22;6801;53.018;11.560;2023-03-23T13:41:20;13.00;79.40
13458;DHT22;6801;53.018;11.560;2023-03-23T13:43:48;13.00;79.40
13458;DHT22;6801;53.018;11.560;2023-03-23T13:46:27;13.00;79.30
13458;DHT22;6801;53.018;11.560;2023-03-23T13:49:16;13.00;79.20
13458;DHT22;6801;53.018;11.560;2023-03-23T13:52:00;13.00;79.10
13458;DHT22;6801;53.018;11.560;2023-03-23T13:54:31;13.00;79.00
13458;DHT22;6801;53.018;11.560;2023-03-23T13:57:00;13.00;79.00
13458;DHT22;6801;53.018;11.560;2023-03-23T13:59:34;13.00;79.10
13458;DHT22;6801;53.018;11.560;2023-03-23T14:02:30;13.00;79.00
13458;DHT22;6801;53.018;11.560;2023-03-23T14:05:22;13.00;78.90
13458;DHT22;6801;53.018;11.560;2023-03-23T14:07:55;13.00;78.70
13458;DHT22;6801;53.018;11.560;2023-03-23T14:10:30;13.00;78.90
13458;DHT22;6801;53.018;11.560;2023-03-23T14:12:59;13.00;78.90
13458;DHT22;6801;53.018;11.560;2023-03-23T14:15:28;12.90;79.20
13458;DHT22;6801;53.018;11.560;2023-03-23T14:17:56;12.90;79.40
13458;DHT22;6801;53.018;11.560;2023-03-23T14:20:26;12.90;79.50
13458;DHT22;6801;53.018;11.560;2023-03-23T14:22:55;12.90;79.60
13458;DHT22;6801;53.018;11.560;2023-03-23T14:25:26;12.80;79.70
13458;DHT22;6801;53.018;11.560;2023-03-23T14:27:53;12.80;79.70
13458;DHT22;6801;53.018;11.560;2023-03-23T14:30:21;12.80;79.90
13458;DHT22;6801;53.018;11.560;2023-03-23T14:32:51;12.90;79.90
13458;DHT22;6801;53.018;11.560;2023-03-23T14:35:23;12.80;80.00
13458;DHT22;6801;53.018;11.560;2023-03-23T14:37:52;12.90;80.10
13458;DHT22;6801;53.018;11.560;2023-03-23T14:40:20;12.90;80.10
13458;DHT22;6801;53.018;11.560;2023-03-23T14:42:49;12.90;80.10
13458;DHT22;6801;53.018;11.560;2023-03-23T14:45:21;12.90;80.20
13458;DHT22;6801;53.018;11.560;2023-03-23T14:47:51;12.90;80.20
13458;DHT22;6801;53.018;11.560;2023-03-23T14:50:30;13.00;80.30
13458;DHT22;6801;53.018;11.560;2023-03-23T14:52:59;13.00;80.20
13458;DHT22;6801;53.018;11.560;2023-03-23T14:55:30;12.90;80.20
13458;DHT22;6801;53.018;11.560;2023-03-23T14:58:06;12.90;80.20
13458;DHT22;6801;53.018;11.560;2023-03-23T15:00:36;13.00;80.20
13458;DHT22;6801;53.018;11.560;2023-03-23T15:03:05;12.90;80.20
13458;DHT22;6801;53.018;11.560;2023-03-23T15:05:35;12.90;80.20
13458;DHT22;6801;53.018;11.560;2023-03-23T15:08:07;12.80;80.20
13458;DHT22;6801;53.018;11.560;2023-03-23T15:10:35;12.90;80.40
13458;DHT22;6801;53.018;11.560;2023-03-23T15:13:02;12.90;80.30
13458;DHT22;6801;53.018;11.560;2023-03-23T15:15:32;12.80;80.40
13458;DHT22;6801;53.018;11.560;2023-03-23T15:18:00;12.90;80.20
13458;DHT22;6801;53.018;11.560;2023-03-23T15:20:29;12.80;80.20
13458;DHT22;6801;53.018;11.560;2023-03-23T15:23:04;12.80;79.90
13458;DHT22;6801;53.018;11.560;2023-03-23T15:25:33;12.80;80.00
13458;DHT22;6801;53.018;11.560;2023-03-23T15:28:16;12.80;80.30
13458;DHT22;6801;53.018;11.560;2023-03-23T15:30:47;12.80;80.30
13458;DHT22;6801;53.018;11.560;2023-03-23T15:33:15;12.90;80.10
13458;DHT22;6801;53.018;11.560;2023-03-23T15:35:46;12.90;79.80
13458;DHT22;6801;53.018;11.560;2023-03-23T15:38:18;12.90;79.80
13458;DHT22;6801;53.018;11.560;2023-03-23T15:40:49;12.80;79.90
13458;DHT22;6801;53.018;11.560;2023-03-23T15:43:19;12.80;80.10
13458;DHT22;6801;53.018;11.560;2023-03-23T15:45:57;12.80;79.90
13458;DHT22;6801;53.018;11.560;2023-03-23T15:48:29;12.90;80.10
13458;DHT22;6801;53.018;11.560;2023-03-23T15:50:56;12.90;80.10
13458;DHT22;6801;53.018;11.560;2023-03-23T15:53:29;12.80;80.30
13458;DHT22;6801;53.018;11.560;2023-03-23T15:55:59;12.80;80.00
13458;DHT22;6801;53.018;11.560;2023-03-23T15:58:28;12.80;79.90
13458;DHT22;6801;53.018;11.560;2023-03-23T16:00:56;12.80;79.90
13458;DHT22;6801;53.018;11.560;2023-03-23T16:03:26;12.80;80.00
13458;DHT22;6801;53.018;11.560;2023-03-23T16:05:55;12.90;79.90
13458;DHT22;6801;53.018;11.560;2023-03-23T16:08:24;12.90;79.20
13458;DHT22;6801;53.018;11.560;2023-03-23T16:10:51;12.90;79.10
13458;DHT22;6801;53.018;11.560;2023-03-23T16:13:18;12.90;79.40
13458;DHT22;6801;53.018;11.560;2023-03-23T16:15:47;12.90;79.30
13458;DHT22;6801;53.018;11.560;2023-03-23T16:18:18;12.80;79.60
13458;DHT22;6801;53.018;11.560;2023-03-23T16:20:46;12.90;79.20